Espaço - Ciências - Fenômenos Naturais
Meteógrafos Informações Meteorológicas em tempo real

Aeroporto de Congonhas

Histórico do Tempo
Temperatura atual: 25 graus 77 F    Umidade relativa: 57 %
Velocidade do vento: 05 nós 9 Km/h    Direção: 040 graus NE
Ajuste do altímetro ..: 1021 HPA
Visibilidade: Péssima    Tempo presente: Céu Limpo

Observação

Data Hora BRTTempo°CUmidadePressãoVentoVisib.
15/12 - 01:55   Céu Limpo 26° 54% 1021 Nordeste/14 km/h CAVO
15/12 - 00:55   Céu Limpo 26° 50% 1021 Este-nordeste/10 km/h CAVO
14/12 - 23:55   Céu Limpo 26° 44% 1021 Leste/5 km/h CAVO
14/12 - 22:55   Céu Limpo 27° 42% 1022 Norte-nordeste/7 km/h OK
14/12 - 21:55   Céu Limpo 26° 61% 1020 Sul-sudeste/9 km/h OK
14/12 - 20:56   Céu Limpo 27° 54% 1019 Este-sudeste/14 km/h OK
14/12 - 19:55   Céu Limpo 28° 58% 1018 Sul-sudeste/18 km/h OK
14/12 - 18:55   Não Disponível 31° 46% 1017 Sul/18 km/h OK
14/12 - 17:55   Não Disponível 33° 28% 1017 /7 km/h OK
14/12 - 16:55   Céu Limpo 33° 28% 1018 /7 km/h OK
14/12 - 15:55   Céu Limpo 33° 28% 1018 /7 km/h OK
14/12 - 14:55   Céu Limpo 31° 33% 1019 Norte/14 km/h OK
14/12 - 13:55   Não Disponível 31° 38% 1020 Norte/14 km/h OK
14/12 - 12:55   Céu Limpo 30° 37% 1020 Norte-noroeste/18 km/h OK
14/12 - 11:55   Céu Limpo 28° 45% 1020 Norte/12 km/h OK
14/12 - 10:55   Céu Limpo 28° 45% 1020 Norte/12 km/h OK
14/12 - 09:55   Céu Limpo 27° 44% 1020 Norte-noroeste/14 km/h OK
14/12 - 08:55   Céu Limpo 25° 57% 1020 Norte-nordeste/9 km/h OK
14/12 - 07:55   Céu Limpo 21° 77% 1019 Norte/14 km/h OK
14/12 - 06:55   Céu Limpo 21° 73% 1019 Noroeste/9 km/h OK
14/12 - 05:55   Céu Limpo 21° 73% 1018 Norte/5 km/h OK
14/12 - 04:55   Céu Limpo 20° 77% 1018 Este-sudeste/5 km/h OK
14/12 - 03:55   Céu Limpo 21° 77% 1018 Norte-noroeste/7 km/h OK
14/12 - 02:55   Céu Limpo 22° 68% 1018 Norte/0 km/h OK


Apolo11.com - Todos os direitos reservados - 2000 - 2018
Política de Privacidade   |     Termo de Uso e Licenciamento   |  -   Entre em Contato

"Amargas são as lágrimas derramadas, mas ainda mais amargas são as que não se derramam" - Provérbio irlandês